Time;durP1;ratioP1;P1;durP2;ratioP2;P2;SDS_P1;SDS_P2;PMS_P1;PMS_P2;Temp;Humidity;BMP_temperature;BMP_pressure;BME280_temperature;BME280_humidity;BME280_pressure;Samples;Min_cycle;Max_cycle;Signal;HPM_P1;HPM_P2
2023/04/08 00:01:23;;;;;;;1.50;1.40;;;;;;;;;;5050325;28;20211;-58
2023/04/08 00:03:50;;;;;;;1.33;1.23;;;;;;;;;;5064856;28;20677;-58
2023/04/08 00:06:17;;;;;;;1.30;1.30;;;;;;;;;;5055122;28;20204;-58
2023/04/08 00:08:44;;;;;;;1.27;1.27;;;;;;;;;;5061274;28;20257;-58
2023/04/08 00:11:17;;;;;;;2.27;1.17;;;;;;;;;;5050051;28;20250;-59
2023/04/08 00:13:47;;;;;;;1.63;1.50;;;;;;;;;;5063887;28;20223;-58
2023/04/08 00:16:14;;;;;;;2.53;1.60;;;;;;;;;;5066739;28;20207;-58
2023/04/08 00:18:43;;;;;;;1.80;1.60;;;;;;;;;;5052697;28;20268;-59
2023/04/08 00:21:10;;;;;;;1.90;1.57;;;;;;;;;;5060011;28;20226;-59
2023/04/08 00:23:37;;;;;;;1.70;1.60;;;;;;;;;;5068550;28;20226;-58
2023/04/08 00:26:04;;;;;;;1.90;1.80;;;;;;;;;;5058200;28;20218;-59
2023/04/08 00:28:31;;;;;;;1.93;1.83;;;;;;;;;;5066998;28;20206;-57
2023/04/08 00:30:58;;;;;;;2.80;2.00;;;;;;;;;;5059507;28;20712;-58
2023/04/08 00:33:25;;;;;;;2.17;1.97;;;;;;;;;;5065334;28;20235;-58
2023/04/08 00:35:54;;;;;;;2.20;1.80;;;;;;;;;;5060199;28;20204;-58
2023/04/08 00:38:21;;;;;;;1.90;1.70;;;;;;;;;;5063545;28;20235;-58
2023/04/08 00:40:48;;;;;;;2.63;2.43;;;;;;;;;;5061772;28;20622;-58
2023/04/08 00:43:15;;;;;;;2.20;2.03;;;;;;;;;;5056729;28;20226;-58
2023/04/08 00:45:42;;;;;;;2.07;1.97;;;;;;;;;;5064636;28;20207;-57
2023/04/08 00:48:09;;;;;;;2.33;2.20;;;;;;;;;;5053550;28;20216;-58
2023/04/08 00:50:36;;;;;;;3.20;2.50;;;;;;;;;;5056931;28;20206;-58
2023/04/08 00:53:05;;;;;;;2.20;2.00;;;;;;;;;;5067919;28;20231;-58
2023/04/08 00:55:32;;;;;;;2.20;2.00;;;;;;;;;;5068679;28;20214;-58
2023/04/08 00:57:59;;;;;;;2.20;2.10;;;;;;;;;;5067389;28;20814;-58
2023/04/08 01:00:26;;;;;;;2.23;1.93;;;;;;;;;;5052291;28;20212;-58
2023/04/08 01:02:58;;;;;;;1.90;1.80;;;;;;;;;;5065516;28;20211;-58
2023/04/08 01:05:29;;;;;;;2.03;1.93;;;;;;;;;;5046977;28;20216;-57
2023/04/08 01:07:56;;;;;;;2.37;2.27;;;;;;;;;;5063357;28;20206;-58
2023/04/08 01:10:27;;;;;;;2.47;2.27;;;;;;;;;;5066090;28;20203;-58
2023/04/08 01:12:55;;;;;;;2.50;2.27;;;;;;;;;;5054086;28;20262;-57
2023/04/08 01:15:22;;;;;;;2.60;2.40;;;;;;;;;;5048404;28;20207;-57
2023/04/08 01:17:51;;;;;;;2.63;2.43;;;;;;;;;;5054014;28;20215;-57
2023/04/08 01:20:19;;;;;;;2.40;2.20;;;;;;;;;;5066774;28;20621;-58
2023/04/08 01:22:53;;;;;;;3.10;2.20;;;;;;;;;;5060039;28;20219;-58
2023/04/08 01:25:22;;;;;;;2.40;2.20;;;;;;;;;;5061529;28;20235;-58
2023/04/08 01:27:50;;;;;;;4.13;2.80;;;;;;;;;;5068227;28;20737;-57
2023/04/08 01:30:19;;;;;;;2.33;2.13;;;;;;;;;;5065866;28;20206;-58
2023/04/08 01:32:46;;;;;;;2.83;2.50;;;;;;;;;;5063215;28;20322;-58
2023/04/08 01:35:14;;;;;;;2.90;2.47;;;;;;;;;;5058549;28;20208;-58
2023/04/08 01:37:41;;;;;;;3.47;2.57;;;;;;;;;;5048238;28;20211;-58
2023/04/08 01:40:09;;;;;;;3.27;2.53;;;;;;;;;;5047809;28;20231;-58
2023/04/08 01:42:37;;;;;;;4.03;2.47;;;;;;;;;;5062757;28;20210;-58
2023/04/08 01:45:06;;;;;;;4.40;2.20;;;;;;;;;;5058661;28;20215;-58
2023/04/08 01:47:34;;;;;;;2.60;2.40;;;;;;;;;;5064950;28;20203;-58
2023/04/08 01:50:02;;;;;;;2.57;2.03;;;;;;;;;;5058787;28;20621;-58
2023/04/08 01:52:29;;;;;;;1.60;1.60;;;;;;;;;;5060241;28;20219;-58
2023/04/08 01:54:56;;;;;;;2.63;2.03;;;;;;;;;;5054677;28;20293;-58
2023/04/08 01:57:24;;;;;;;3.67;2.77;;;;;;;;;;5067460;28;20573;-57
2023/04/08 01:59:52;;;;;;;3.60;1.90;;;;;;;;;;5060970;28;20216;-57
2023/04/08 02:02:22;;;;;;;2.03;1.93;;;;;;;;;;5048140;28;20241;-58
2023/04/08 02:07:52;;;;;;;2.03;1.70;;;;;;;;;;5049591;28;20201;-57
2023/04/08 02:10:19;;;;;;;2.27;2.07;;;;;;;;;;5049875;28;20207;-58
2023/04/08 02:12:46;;;;;;;2.20;2.10;;;;;;;;;;5064612;28;20314;-58
2023/04/08 02:15:14;;;;;;;1.90;1.80;;;;;;;;;;5046774;28;20203;-57
2023/04/08 02:17:44;;;;;;;1.97;1.77;;;;;;;;;;5060019;28;20296;-57
2023/04/08 02:20:14;;;;;;;1.83;1.73;;;;;;;;;;5064572;28;20210;-57
2023/04/08 02:22:44;;;;;;;1.50;1.50;;;;;;;;;;5065231;28;20231;-57
2023/04/08 02:25:13;;;;;;;1.70;1.60;;;;;;;;;;5049823;28;20204;-57
2023/04/08 02:27:41;;;;;;;1.63;1.53;;;;;;;;;;5055232;28;20210;-58
2023/04/08 02:30:09;;;;;;;2.00;1.80;;;;;;;;;;5065595;28;20207;-58
2023/04/08 02:32:36;;;;;;;1.93;1.83;;;;;;;;;;5058798;28;20236;-58
2023/04/08 02:35:19;;;;;;;1.97;1.83;;;;;;;;;;5053191;28;20211;-58
2023/04/08 02:37:48;;;;;;;1.57;1.33;;;;;;;;;;5062576;28;20210;-57
2023/04/08 02:40:24;;;;;;;1.80;1.53;;;;;;;;;;5065458;28;20658;-58
2023/04/08 02:42:51;;;;;;;3.43;2.27;;;;;;;;;;5048500;28;20203;-58
2023/04/08 02:45:19;;;;;;;2.10;2.00;;;;;;;;;;5048202;28;20208;-57
2023/04/08 02:47:46;;;;;;;1.40;1.40;;;;;;;;;;5060986;28;20219;-58
2023/04/08 02:50:13;;;;;;;1.73;1.63;;;;;;;;;;5064922;28;20218;-57
2023/04/08 02:52:40;;;;;;;1.77;1.67;;;;;;;;;;5064475;28;20309;-57
2023/04/08 02:55:09;;;;;;;1.30;1.30;;;;;;;;;;5054537;28;20215;-57
2023/04/08 02:57:36;;;;;;;2.93;1.93;;;;;;;;;;5064440;28;20225;-56
2023/04/08 03:00:04;;;;;;;1.83;1.57;;;;;;;;;;5058589;28;20199;-57
2023/04/08 03:02:31;;;;;;;2.97;2.10;;;;;;;;;;5060631;28;20200;-57
2023/04/08 03:04:58;;;;;;;1.67;1.57;;;;;;;;;;5065201;28;20294;-58
2023/04/08 03:07:25;;;;;;;1.50;1.40;;;;;;;;;;5047338;28;20215;-57
2023/04/08 03:09:53;;;;;;;2.20;1.83;;;;;;;;;;5055393;28;20195;-57
2023/04/08 03:12:22;;;;;;;1.37;1.27;;;;;;;;;;5065698;28;20213;-58
2023/04/08 03:14:49;;;;;;;3.00;1.53;;;;;;;;;;5066833;28;20230;-58
2023/04/08 03:17:16;;;;;;;1.33;1.17;;;;;;;;;;5053776;28;20219;-57
2023/04/08 03:19:43;;;;;;;1.90;1.70;;;;;;;;;;5046693;28;20856;-58
2023/04/08 03:22:10;;;;;;;5.47;2.77;;;;;;;;;;5046249;28;20228;-57
2023/04/08 03:24:37;;;;;;;2.73;2.43;;;;;;;;;;5046563;28;20211;-57
2023/04/08 03:27:05;;;;;;;2.20;1.93;;;;;;;;;;5050042;28;20658;-57
2023/04/08 03:29:33;;;;;;;1.97;1.87;;;;;;;;;;5050500;28;20219;-57
2023/04/08 03:32:00;;;;;;;1.73;1.60;;;;;;;;;;5069384;28;20211;-57
2023/04/08 03:34:27;;;;;;;2.53;2.17;;;;;;;;;;5050984;28;20238;-58
2023/04/08 03:36:54;;;;;;;4.77;2.50;;;;;;;;;;5053548;28;20729;-57
2023/04/08 03:39:21;;;;;;;3.67;2.40;;;;;;;;;;5067029;28;20242;-57
2023/04/08 03:41:48;;;;;;;2.03;1.90;;;;;;;;;;5069928;28;20211;-57
2023/04/08 03:44:15;;;;;;;2.60;2.40;;;;;;;;;;5053852;28;20207;-57
2023/04/08 03:46:43;;;;;;;5.20;2.93;;;;;;;;;;5061895;28;20654;-57
2023/04/08 03:49:11;;;;;;;7.47;4.23;;;;;;;;;;5067875;28;20798;-57
2023/04/08 03:51:38;;;;;;;9.10;4.47;;;;;;;;;;5069354;28;20203;-57
2023/04/08 03:54:06;;;;;;;5.90;4.03;;;;;;;;;;5068895;28;20230;-57
2023/04/08 03:56:33;;;;;;;13.60;6.23;;;;;;;;;;5061570;28;20199;-57
2023/04/08 03:59:00;;;;;;;14.63;6.27;;;;;;;;;;5059301;28;20203;-58
2023/04/08 04:01:27;;;;;;;14.57;5.67;;;;;;;;;;5049843;28;20220;-57
2023/04/08 04:03:56;;;;;;;14.47;5.00;;;;;;;;;;5051936;28;20203;-57
2023/04/08 04:06:23;;;;;;;8.10;4.60;;;;;;;;;;5049928;28;20219;-58
2023/04/08 04:08:50;;;;;;;7.63;3.40;;;;;;;;;;5058976;28;20672;-57
2023/04/08 04:11:17;;;;;;;3.83;2.53;;;;;;;;;;5069636;28;20665;-57
2023/04/08 04:13:44;;;;;;;3.37;3.07;;;;;;;;;;5059392;28;20231;-57
2023/04/08 04:16:11;;;;;;;4.00;2.87;;;;;;;;;;5062176;28;20199;-57
2023/04/08 04:18:38;;;;;;;3.20;2.17;;;;;;;;;;5056127;28;20725;-57
2023/04/08 04:21:07;;;;;;;2.93;2.13;;;;;;;;;;5050931;28;20219;-58
2023/04/08 04:23:34;;;;;;;4.87;2.30;;;;;;;;;;5067510;28;20258;-57
2023/04/08 04:26:01;;;;;;;3.87;2.70;;;;;;;;;;5061367;28;20199;-58
2023/04/08 04:28:28;;;;;;;2.23;1.77;;;;;;;;;;5050917;28;20202;-56
2023/04/08 04:30:55;;;;;;;2.40;2.20;;;;;;;;;;5054515;28;20207;-57
2023/04/08 04:33:22;;;;;;;4.53;2.00;;;;;;;;;;5052559;28;20222;-57
2023/04/08 04:35:49;;;;;;;2.00;1.90;;;;;;;;;;5062791;28;20705;-58
2023/04/08 04:38:17;;;;;;;2.93;2.20;;;;;;;;;;5050303;28;20239;-58
2023/04/08 04:40:44;;;;;;;1.83;1.60;;;;;;;;;;5061319;28;20212;-58
2023/04/08 04:43:11;;;;;;;1.50;1.40;;;;;;;;;;5066697;28;20630;-58
2023/04/08 04:45:39;;;;;;;1.80;1.40;;;;;;;;;;5063942;28;20199;-58
2023/04/08 04:48:06;;;;;;;1.20;1.10;;;;;;;;;;5065648;28;20215;-57
2023/04/08 04:50:33;;;;;;;1.03;1.03;;;;;;;;;;5056609;28;20199;-57
2023/04/08 04:53:00;;;;;;;1.60;1.50;;;;;;;;;;5068679;28;20233;-57
2023/04/08 04:55:28;;;;;;;1.13;1.13;;;;;;;;;;5062575;28;20375;-57
2023/04/08 04:57:55;;;;;;;1.50;1.40;;;;;;;;;;5068455;28;20681;-57
2023/04/08 05:00:22;;;;;;;1.63;1.50;;;;;;;;;;5064849;28;20252;-57
2023/04/08 05:02:49;;;;;;;1.40;1.30;;;;;;;;;;5060737;28;20203;-58
2023/04/08 05:05:17;;;;;;;1.27;1.27;;;;;;;;;;5055915;28;20203;-57
2023/04/08 05:07:44;;;;;;;1.37;1.37;;;;;;;;;;5052837;28;20665;-58
2023/04/08 05:10:11;;;;;;;4.13;1.60;;;;;;;;;;5059907;28;20268;-57
2023/04/08 05:12:40;;;;;;;1.53;1.40;;;;;;;;;;5048298;28;20214;-57
2023/04/08 05:15:08;;;;;;;1.80;1.60;;;;;;;;;;5047536;28;20281;-57
2023/04/08 05:17:35;;;;;;;1.43;1.33;;;;;;;;;;5060573;28;20750;-57
2023/04/08 05:20:02;;;;;;;2.30;1.97;;;;;;;;;;5062338;28;20202;-57
2023/04/08 05:22:29;;;;;;;2.17;1.93;;;;;;;;;;5052495;28;20219;-58
2023/04/08 05:24:56;;;;;;;3.90;2.03;;;;;;;;;;5056519;28;20199;-57
2023/04/08 05:27:23;;;;;;;1.97;1.77;;;;;;;;;;5066941;28;20222;-58
2023/04/08 05:29:52;;;;;;;1.67;1.57;;;;;;;;;;5057706;28;20211;-57
2023/04/08 05:32:19;;;;;;;2.90;2.00;;;;;;;;;;5048210;28;20210;-56
2023/04/08 05:34:46;;;;;;;2.13;1.93;;;;;;;;;;5048999;28;20235;-57
2023/04/08 05:37:13;;;;;;;1.23;1.20;;;;;;;;;;5047743;28;20694;-57
2023/04/08 05:39:41;;;;;;;1.37;1.27;;;;;;;;;;5060160;28;20254;-57
2023/04/08 05:42:08;;;;;;;2.03;1.40;;;;;;;;;;5047869;28;20409;-57
2023/04/08 05:44:35;;;;;;;2.00;1.90;;;;;;;;;;5051201;28;20845;-57
2023/04/08 05:47:04;;;;;;;1.53;1.27;;;;;;;;;;5051036;28;20207;-57
2023/04/08 05:49:31;;;;;;;1.20;1.20;;;;;;;;;;5060550;28;20666;-57
2023/04/08 05:51:58;;;;;;;1.23;1.23;;;;;;;;;;5066477;28;20213;-57
2023/04/08 05:54:25;;;;;;;1.30;1.17;;;;;;;;;;5051527;28;20235;-58
2023/04/08 05:56:52;;;;;;;1.53;1.33;;;;;;;;;;5058846;28;20217;-57
2023/04/08 05:59:19;;;;;;;2.13;1.40;;;;;;;;;;5049388;28;20208;-58
2023/04/08 06:01:46;;;;;;;2.77;1.57;;;;;;;;;;5063186;28;20206;-57
2023/04/08 06:04:16;;;;;;;1.40;1.33;;;;;;;;;;5061433;28;20198;-58
2023/04/08 06:06:43;;;;;;;1.50;1.40;;;;;;;;;;5066567;28;20730;-58
2023/04/08 06:09:10;;;;;;;1.30;1.20;;;;;;;;;;5066794;28;20218;-57
2023/04/08 06:11:37;;;;;;;1.90;1.47;;;;;;;;;;5060569;28;20210;-57
2023/04/08 06:14:04;;;;;;;2.13;1.50;;;;;;;;;;5058851;28;20227;-62
2023/04/08 06:16:31;;;;;;;1.60;1.50;;;;;;;;;;5064130;28;20680;-58
2023/04/08 06:18:58;;;;;;;1.70;1.60;;;;;;;;;;5064801;28;20217;-57
2023/04/08 06:21:26;;;;;;;4.83;1.67;;;;;;;;;;5058387;28;20203;-58
2023/04/08 06:23:53;;;;;;;1.77;1.67;;;;;;;;;;5045549;28;20223;-58
2023/04/08 06:26:21;;;;;;;1.60;1.50;;;;;;;;;;5061796;28;20221;-58
2023/04/08 06:28:48;;;;;;;1.90;1.80;;;;;;;;;;5052590;28;20600;-57
2023/04/08 06:31:15;;;;;;;1.67;1.57;;;;;;;;;;5054434;28;20203;-58
2023/04/08 06:33:42;;;;;;;1.70;1.57;;;;;;;;;;5059457;28;20226;-57
2023/04/08 06:36:10;;;;;;;1.70;1.60;;;;;;;;;;5047555;28;20211;-58
2023/04/08 06:38:41;;;;;;;4.77;2.13;;;;;;;;;;5053329;28;20650;-58
2023/04/08 06:41:08;;;;;;;3.87;1.97;;;;;;;;;;5056492;28;20215;-58
2023/04/08 06:43:36;;;;;;;2.17;1.63;;;;;;;;;;5056204;28;20211;-57
2023/04/08 06:46:03;;;;;;;2.47;1.93;;;;;;;;;;5055817;28;20687;-57
2023/04/08 06:48:30;;;;;;;2.50;2.00;;;;;;;;;;5058559;28;20214;-57
2023/04/08 06:50:57;;;;;;;1.23;1.17;;;;;;;;;;5063698;28;20203;-58
2023/04/08 06:53:25;;;;;;;1.73;1.63;;;;;;;;;;5052108;28;20619;-58
2023/04/08 06:55:53;;;;;;;2.03;1.77;;;;;;;;;;5057396;28;20235;-57
2023/04/08 06:58:20;;;;;;;2.67;2.20;;;;;;;;;;5066693;28;20214;-57
2023/04/08 07:00:47;;;;;;;3.43;2.10;;;;;;;;;;5065488;28;20203;-58
2023/04/08 07:03:15;;;;;;;2.17;2.07;;;;;;;;;;5061726;28;20227;-58
2023/04/08 07:05:42;;;;;;;2.20;2.10;;;;;;;;;;5054354;28;20187;-57
2023/04/08 07:08:09;;;;;;;2.40;2.30;;;;;;;;;;5057913;28;20203;-58
2023/04/08 07:10:36;;;;;;;1.97;1.87;;;;;;;;;;5062133;28;20203;-58
2023/04/08 07:13:05;;;;;;;2.80;2.60;;;;;;;;;;5058969;28;20204;-58
2023/04/08 07:15:32;;;;;;;3.07;2.67;;;;;;;;;;5053895;28;20235;-59
2023/04/08 07:17:59;;;;;;;3.27;2.97;;;;;;;;;;5068537;28;20265;-57
2023/04/08 07:20:26;;;;;;;5.53;3.40;;;;;;;;;;5059691;28;20226;-57
2023/04/08 07:22:53;;;;;;;4.70;3.33;;;;;;;;;;5060965;28;20702;-57
2023/04/08 07:25:20;;;;;;;4.00;3.60;;;;;;;;;;5052243;28;20200;-57
2023/04/08 07:27:48;;;;;;;4.13;3.60;;;;;;;;;;5057059;28;20207;-57
2023/04/08 07:30:18;;;;;;;3.23;3.03;;;;;;;;;;5051604;28;20215;-58
2023/04/08 07:32:46;;;;;;;5.50;3.67;;;;;;;;;;5056030;28;20207;-58
2023/04/08 07:35:13;;;;;;;4.03;3.63;;;;;;;;;;5050213;28;20231;-58
2023/04/08 07:37:40;;;;;;;5.83;3.60;;;;;;;;;;5057198;28;20289;-59
2023/04/08 07:40:07;;;;;;;3.77;3.43;;;;;;;;;;5070525;28;20242;-58
2023/04/08 07:42:34;;;;;;;5.87;3.90;;;;;;;;;;5065135;28;20207;-58
2023/04/08 07:45:01;;;;;;;5.30;3.67;;;;;;;;;;5065660;28;20232;-58
2023/04/08 07:47:30;;;;;;;7.90;3.80;;;;;;;;;;5059734;28;20690;-58
2023/04/08 07:49:57;;;;;;;5.83;4.20;;;;;;;;;;5061494;28;20207;-58
2023/04/08 07:52:25;;;;;;;8.57;4.47;;;;;;;;;;5064727;28;20837;-57
2023/04/08 07:54:52;;;;;;;5.13;3.77;;;;;;;;;;5068248;28;20740;-58
2023/04/08 07:57:19;;;;;;;5.27;4.10;;;;;;;;;;5054508;28;20208;-58
2023/04/08 07:59:46;;;;;;;8.97;4.70;;;;;;;;;;5054789;28;20207;-57
2023/04/08 08:02:13;;;;;;;6.00;3.93;;;;;;;;;;5055595;28;20207;-57
2023/04/08 08:04:41;;;;;;;5.63;4.33;;;;;;;;;;5049729;28;20234;-57
2023/04/08 08:07:08;;;;;;;5.93;4.40;;;;;;;;;;5053298;28;20318;-57
2023/04/08 08:09:35;;;;;;;5.33;4.33;;;;;;;;;;5063738;28;20768;-59
2023/04/08 08:12:02;;;;;;;5.40;4.63;;;;;;;;;;5051772;28;20203;-57
2023/04/08 08:14:29;;;;;;;5.40;4.30;;;;;;;;;;5067428;28;20311;-57
2023/04/08 08:16:56;;;;;;;4.73;4.27;;;;;;;;;;5063027;28;20298;-57
2023/04/08 08:19:23;;;;;;;5.03;3.70;;;;;;;;;;5050935;28;20208;-57
2023/04/08 08:21:52;;;;;;;5.33;3.70;;;;;;;;;;5062539;28;20680;-57
2023/04/08 08:24:19;;;;;;;6.80;4.87;;;;;;;;;;5056151;28;20218;-59
2023/04/08 08:26:48;;;;;;;4.37;3.80;;;;;;;;;;5059445;28;20211;-57
2023/04/08 08:29:15;;;;;;;4.17;3.77;;;;;;;;;;5065241;28;20561;-65
2023/04/08 08:31:42;;;;;;;5.60;4.43;;;;;;;;;;5053567;28;20215;-57
2023/04/08 08:34:09;;;;;;;6.57;4.43;;;;;;;;;;5060579;28;20210;-57
2023/04/08 08:36:36;;;;;;;5.23;3.83;;;;;;;;;;5069524;28;20239;-58
2023/04/08 08:39:05;;;;;;;4.73;3.93;;;;;;;;;;5069531;28;20301;-58
2023/04/08 08:41:34;;;;;;;3.17;2.77;;;;;;;;;;5068692;28;20207;-58
2023/04/08 08:44:03;;;;;;;5.10;4.20;;;;;;;;;;5062487;28;20293;-62
2023/04/08 08:46:30;;;;;;;4.47;3.30;;;;;;;;;;5052274;28;20302;-58
2023/04/08 08:48:57;;;;;;;6.17;4.23;;;;;;;;;;5054794;28;20222;-58
2023/04/08 08:51:25;;;;;;;4.40;3.57;;;;;;;;;;5065536;28;20230;-58
2023/04/08 08:53:52;;;;;;;4.77;3.93;;;;;;;;;;5053630;28;20210;-58
2023/04/08 08:56:20;;;;;;;5.17;4.23;;;;;;;;;;5060425;28;20231;-58
2023/04/08 08:58:47;;;;;;;6.77;4.30;;;;;;;;;;5047512;28;20295;-58
2023/04/08 09:01:31;;;;;;;6.50;4.23;;;;;;;;;;5046771;28;20261;-58
2023/04/08 09:04:07;;;;;;;7.30;4.13;;;;;;;;;;5051677;28;20258;-58
2023/04/08 09:06:34;;;;;;;4.37;3.97;;;;;;;;;;5057307;28;20201;-58
2023/04/08 09:09:03;;;;;;;3.77;3.47;;;;;;;;;;5067872;28;20681;-58
2023/04/08 09:11:31;;;;;;;4.93;4.17;;;;;;;;;;5068580;28;20218;-58
2023/04/08 09:13:58;;;;;;;5.00;4.07;;;;;;;;;;5048802;28;20212;-58
2023/04/08 09:16:26;;;;;;;5.17;3.43;;;;;;;;;;5051632;28;20234;-58
2023/04/08 09:18:53;;;;;;;5.90;3.40;;;;;;;;;;5066489;28;20195;-58
2023/04/08 09:21:23;;;;;;;9.73;3.87;;;;;;;;;;5061903;28;20203;-58
2023/04/08 09:23:51;;;;;;;5.43;4.60;;;;;;;;;;5048258;28;20304;-58
2023/04/08 09:26:21;;;;;;;17.00;4.27;;;;;;;;;;5048710;28;20203;-58
2023/04/08 09:28:59;;;;;;;4.77;4.30;;;;;;;;;;5055797;28;20195;-57
2023/04/08 09:31:27;;;;;;;5.50;3.97;;;;;;;;;;5047656;28;20617;-58
2023/04/08 09:33:55;;;;;;;4.10;3.77;;;;;;;;;;5048450;28;20391;-58
2023/04/08 09:36:22;;;;;;;4.87;3.70;;;;;;;;;;5048021;28;20227;-59
2023/04/08 09:38:49;;;;;;;6.13;4.13;;;;;;;;;;5046863;28;20232;-59
2023/04/08 09:41:17;;;;;;;5.80;4.13;;;;;;;;;;5047968;28;20238;-59
2023/04/08 09:43:48;;;;;;;5.17;4.37;;;;;;;;;;5047020;28;20258;-64
2023/04/08 09:46:17;;;;;;;6.83;4.40;;;;;;;;;;5049292;28;20204;-61
2023/04/08 09:48:50;;;;;;;4.70;4.30;;;;;;;;;;5055405;28;20239;-59
2023/04/08 09:51:17;;;;;;;4.43;3.90;;;;;;;;;;5052560;28;20204;-59
2023/04/08 09:53:47;;;;;;;5.77;4.27;;;;;;;;;;5062732;28;20727;-59
2023/04/08 09:56:15;;;;;;;3.43;3.13;;;;;;;;;;5057976;28;20285;-59
2023/04/08 09:58:43;;;;;;;3.33;2.80;;;;;;;;;;5063480;28;20195;-63
2023/04/08 10:01:13;;;;;;;4.47;3.63;;;;;;;;;;5054778;28;20259;-59
2023/04/08 10:03:47;;;;;;;2.53;2.30;;;;;;;;;;5066194;28;20210;-59
2023/04/08 10:06:16;;;;;;;4.83;4.00;;;;;;;;;;5068038;28;20883;-59
2023/04/08 10:08:43;;;;;;;5.30;3.90;;;;;;;;;;5050870;28;20857;-59
2023/04/08 10:11:10;;;;;;;5.63;4.47;;;;;;;;;;5060868;28;20208;-59
2023/04/08 10:13:37;;;;;;;7.63;4.67;;;;;;;;;;5048106;28;20309;-59
2023/04/08 10:16:21;;;;;;;8.23;4.67;;;;;;;;;;5047925;28;20265;-59
2023/04/08 10:18:54;;;;;;;5.27;4.23;;;;;;;;;;5057514;28;20249;-60
2023/04/08 10:21:31;;;;;;;6.20;4.30;;;;;;;;;;5050761;28;20673;-59
2023/04/08 10:24:00;;;;;;;4.20;3.80;;;;;;;;;;5063443;28;20294;-59
2023/04/08 10:26:32;;;;;;;4.23;3.77;;;;;;;;;;5062837;28;20205;-59
2023/04/08 10:29:14;;;;;;;4.13;1.83;;;;;;;;;;5067406;28;20222;-59
2023/04/08 10:31:41;;;;;;;4.97;3.70;;;;;;;;;;5049857;28;20218;-59
2023/04/08 10:34:17;;;;;;;3.47;3.17;;;;;;;;;;5066279;28;20214;-59
2023/04/08 10:36:44;;;;;;;3.10;2.67;;;;;;;;;;5071659;28;20268;-59
2023/04/08 10:39:11;;;;;;;3.60;3.27;;;;;;;;;;5053623;28;20250;-59
2023/04/08 10:41:42;;;;;;;5.43;3.77;;;;;;;;;;5055824;28;20207;-59
2023/04/08 10:44:16;;;;;;;4.40;4.00;;;;;;;;;;5069753;28;20264;-59
2023/04/08 10:46:43;;;;;;;6.53;3.53;;;;;;;;;;5068751;28;20228;-60
2023/04/08 10:49:11;;;;;;;4.63;3.63;;;;;;;;;;5054601;28;20212;-59
2023/04/08 10:51:40;;;;;;;4.57;3.53;;;;;;;;;;5062297;28;20203;-59
2023/04/08 10:54:08;;;;;;;4.37;3.43;;;;;;;;;;5071752;28;20207;-59
2023/04/08 10:56:36;;;;;;;4.13;3.73;;;;;;;;;;5062968;28;20251;-59
2023/04/08 10:59:03;;;;;;;5.60;3.83;;;;;;;;;;5051653;28;20207;-58
2023/04/08 11:01:39;;;;;;;4.17;3.43;;;;;;;;;;5057667;28;20245;-59
2023/04/08 11:04:08;;;;;;;3.53;3.33;;;;;;;;;;5071456;28;20268;-59
2023/04/08 11:06:37;;;;;;;2.60;2.40;;;;;;;;;;5054364;28;20204;-59
2023/04/08 11:09:06;;;;;;;4.23;3.83;;;;;;;;;;5051185;28;20210;-59
2023/04/08 11:11:33;;;;;;;4.40;3.70;;;;;;;;;;5050627;28;20249;-59
2023/04/08 11:14:00;;;;;;;4.97;3.87;;;;;;;;;;5051171;28;20212;-59
2023/04/08 11:16:28;;;;;;;3.17;2.93;;;;;;;;;;5053706;28;20720;-59
2023/04/08 11:18:56;;;;;;;3.17;2.90;;;;;;;;;;5061824;28;20262;-59
2023/04/08 11:21:27;;;;;;;5.27;4.07;;;;;;;;;;5063109;28;20319;-59
2023/04/08 11:23:55;;;;;;;5.07;4.03;;;;;;;;;;5062060;28;20754;-59
2023/04/08 11:26:23;;;;;;;3.77;3.47;;;;;;;;;;5071117;28;20203;-59
2023/04/08 11:28:51;;;;;;;3.73;3.43;;;;;;;;;;5069774;28;20218;-59
2023/04/08 11:31:19;;;;;;;2.87;2.67;;;;;;;;;;5070458;28;20218;-59
2023/04/08 11:33:47;;;;;;;2.27;2.17;;;;;;;;;;5059078;28;20232;-59
2023/04/08 11:36:15;;;;;;;5.10;3.40;;;;;;;;;;5050450;28;20232;-59
2023/04/08 11:38:42;;;;;;;4.43;3.60;;;;;;;;;;5059288;28;20222;-59
2023/04/08 11:41:10;;;;;;;3.27;2.97;;;;;;;;;;5070985;28;20206;-59
2023/04/08 11:43:39;;;;;;;5.03;3.90;;;;;;;;;;5068161;28;20203;-59
2023/04/08 11:46:11;;;;;;;9.50;5.77;;;;;;;;;;5069902;28;20203;-60
2023/04/08 11:48:38;;;;;;;5.33;4.17;;;;;;;;;;5061647;28;20199;-59
2023/04/08 11:51:07;;;;;;;4.90;3.70;;;;;;;;;;5048549;28;20629;-59
2023/04/08 11:53:36;;;;;;;3.50;3.20;;;;;;;;;;5052676;28;20606;-59
2023/04/08 11:56:16;;;;;;;5.73;3.50;;;;;;;;;;5051837;28;20216;-59
2023/04/08 11:58:45;;;;;;;6.10;3.87;;;;;;;;;;5054559;28;20207;-59
2023/04/08 12:01:12;;;;;;;4.67;2.97;;;;;;;;;;5059032;28;20203;-58
2023/04/08 12:03:39;;;;;;;4.10;3.53;;;;;;;;;;5063045;28;20214;-59
2023/04/08 12:06:07;;;;;;;6.37;3.17;;;;;;;;;;5069571;28;20226;-59
2023/04/08 12:08:34;;;;;;;2.80;2.53;;;;;;;;;;5070114;28;20211;-59
2023/04/08 12:11:01;;;;;;;4.97;2.87;;;;;;;;;;5063805;28;20268;-59
2023/04/08 12:13:30;;;;;;;2.53;2.33;;;;;;;;;;5060557;28;20600;-59
2023/04/08 12:15:58;;;;;;;3.57;2.23;;;;;;;;;;5069620;28;20230;-59
2023/04/08 12:18:25;;;;;;;3.27;2.40;;;;;;;;;;5052082;28;20208;-59
2023/04/08 12:20:53;;;;;;;3.50;2.00;;;;;;;;;;5070153;28;20203;-60
2023/04/08 12:23:20;;;;;;;1.47;1.37;;;;;;;;;;5069629;28;20237;-59
2023/04/08 12:25:47;;;;;;;1.70;1.57;;;;;;;;;;5056065;28;20199;-59
2023/04/08 12:28:14;;;;;;;2.90;1.67;;;;;;;;;;5067803;28;20218;-59
2023/04/08 12:30:41;;;;;;;3.67;1.63;;;;;;;;;;5049716;28;20215;-59
2023/04/08 12:33:10;;;;;;;1.70;1.60;;;;;;;;;;5050081;28;20207;-59
2023/04/08 12:35:37;;;;;;;0.43;0.43;;;;;;;;;;5057293;28;20211;-59
2023/04/08 12:38:04;;;;;;;1.60;1.50;;;;;;;;;;5049496;28;20203;-59
2023/04/08 12:40:31;;;;;;;2.70;1.50;;;;;;;;;;5048313;28;20212;-59
2023/04/08 12:42:58;;;;;;;2.60;1.70;;;;;;;;;;5049236;28;20226;-59
2023/04/08 12:45:25;;;;;;;0.70;0.70;;;;;;;;;;5049161;28;20211;-59
2023/04/08 12:47:52;;;;;;;2.03;1.93;;;;;;;;;;5059924;28;20202;-59
2023/04/08 12:50:20;;;;;;;1.53;1.43;;;;;;;;;;5064320;28;20206;-59
2023/04/08 12:52:47;;;;;;;1.80;1.70;;;;;;;;;;5050983;28;20837;-59
2023/04/08 12:55:15;;;;;;;1.47;1.37;;;;;;;;;;5059092;28;20207;-59
2023/04/08 12:57:42;;;;;;;1.97;1.87;;;;;;;;;;5067389;28;20231;-59
2023/04/08 13:00:10;;;;;;;2.27;1.60;;;;;;;;;;5066665;28;20207;-59
2023/04/08 13:02:37;;;;;;;1.70;1.60;;;;;;;;;;5048477;28;20207;-59
2023/04/08 13:05:04;;;;;;;2.67;1.77;;;;;;;;;;5048394;28;20652;-59
2023/04/08 13:07:32;;;;;;;1.77;1.60;;;;;;;;;;5049454;28;20215;-59
2023/04/08 13:09:59;;;;;;;2.30;1.40;;;;;;;;;;5048593;28;20208;-59
2023/04/08 13:12:26;;;;;;;1.37;1.33;;;;;;;;;;5050961;28;20207;-59
2023/04/08 13:14:54;;;;;;;2.37;2.07;;;;;;;;;;5056532;28;20205;-59
2023/04/08 13:17:21;;;;;;;0.70;0.70;;;;;;;;;;5066687;28;20234;-59
2023/04/08 13:19:49;;;;;;;1.23;0.70;;;;;;;;;;5058957;28;20643;-59
2023/04/08 13:22:16;;;;;;;1.37;1.27;;;;;;;;;;5056060;28;20226;-59
2023/04/08 13:24:45;;;;;;;2.70;1.83;;;;;;;;;;5049563;28;20203;-59
2023/04/08 13:27:12;;;;;;;1.80;1.70;;;;;;;;;;5058157;28;20285;-59
2023/04/08 13:29:39;;;;;;;1.80;1.67;;;;;;;;;;5051053;28;20443;-59
2023/04/08 13:32:06;;;;;;;2.20;2.00;;;;;;;;;;5049551;28;20203;-59
2023/04/08 13:34:33;;;;;;;2.33;2.23;;;;;;;;;;5048193;28;20671;-59
2023/04/08 13:37:01;;;;;;;2.43;2.33;;;;;;;;;;5047773;28;20235;-59
2023/04/08 13:39:28;;;;;;;2.00;1.90;;;;;;;;;;5058522;28;20748;-59
2023/04/08 13:41:56;;;;;;;2.33;1.17;;;;;;;;;;5067459;28;20690;-59
2023/04/08 13:44:24;;;;;;;1.70;1.60;;;;;;;;;;5049168;28;20661;-59
2023/04/08 13:46:51;;;;;;;2.30;2.10;;;;;;;;;;5051314;28;20239;-59
2023/04/08 13:49:19;;;;;;;1.23;1.23;;;;;;;;;;5067731;28;20234;-59
2023/04/08 13:51:46;;;;;;;2.57;1.67;;;;;;;;;;5067311;28;20235;-59
2023/04/08 13:54:13;;;;;;;1.97;1.87;;;;;;;;;;5066247;28;20261;-59
2023/04/08 13:56:40;;;;;;;1.90;1.80;;;;;;;;;;5059334;28;20789;-59
2023/04/08 13:59:09;;;;;;;2.10;1.93;;;;;;;;;;5047650;28;20269;-59
2023/04/08 14:01:36;;;;;;;2.20;2.10;;;;;;;;;;5047583;28;20898;-59
2023/04/08 14:04:03;;;;;;;2.43;2.23;;;;;;;;;;5048325;28;20288;-59
2023/04/08 14:06:31;;;;;;;2.20;2.10;;;;;;;;;;5056922;28;20681;-59
2023/04/08 14:08:58;;;;;;;3.50;1.40;;;;;;;;;;5063053;28;20208;-59
2023/04/08 14:11:25;;;;;;;1.90;1.80;;;;;;;;;;5047223;28;20564;-59
2023/04/08 14:13:52;;;;;;;1.63;1.53;;;;;;;;;;5063647;28;20646;-59
2023/04/08 14:16:20;;;;;;;2.13;1.50;;;;;;;;;;5063760;28;20198;-59
2023/04/08 14:18:47;;;;;;;1.33;1.33;;;;;;;;;;5047448;28;20218;-59
2023/04/08 14:21:16;;;;;;;2.67;1.87;;;;;;;;;;5060133;28;20206;-59
2023/04/08 14:23:44;;;;;;;1.40;1.30;;;;;;;;;;5061921;28;20238;-59
2023/04/08 14:26:11;;;;;;;1.90;1.80;;;;;;;;;;5060247;28;20545;-60
2023/04/08 14:28:38;;;;;;;1.40;1.40;;;;;;;;;;5048055;28;20250;-59
2023/04/08 14:31:05;;;;;;;2.40;1.87;;;;;;;;;;5056996;28;20657;-61
2023/04/08 14:33:33;;;;;;;1.00;0.87;;;;;;;;;;5065195;28;20203;-60
2023/04/08 14:36:00;;;;;;;1.40;1.13;;;;;;;;;;5065891;28;20214;-59
2023/04/08 14:38:27;;;;;;;1.50;1.40;;;;;;;;;;5053225;28;20285;-59
2023/04/08 14:40:54;;;;;;;2.00;1.57;;;;;;;;;;5054336;28;20211;-59
2023/04/08 14:43:21;;;;;;;1.90;1.80;;;;;;;;;;5047261;28;20207;-59
2023/04/08 14:45:50;;;;;;;2.00;1.70;;;;;;;;;;5047565;28;20203;-58
2023/04/08 14:48:17;;;;;;;2.33;2.13;;;;;;;;;;5065701;28;20693;-59
2023/04/08 14:50:45;;;;;;;1.67;1.57;;;;;;;;;;5053952;28;20685;-59